sensor_id;sensor_type;location;lat;lon;timestamp;temperature;humidity
46720;DHT22;32452;51.382;-0.002;2023-09-30T00:01:10;14.80;90.90
46720;DHT22;32452;51.382;-0.002;2023-09-30T00:04:00;14.80;91.00
46720;DHT22;32452;51.382;-0.002;2023-09-30T00:06:48;14.80;91.00
46720;DHT22;32452;51.382;-0.002;2023-09-30T00:09:33;14.80;91.20
46720;DHT22;32452;51.382;-0.002;2023-09-30T00:12:19;14.80;91.30
46720;DHT22;32452;51.382;-0.002;2023-09-30T00:15:07;14.80;91.40
46720;DHT22;32452;51.382;-0.002;2023-09-30T00:17:53;14.80;91.50
46720;DHT22;32452;51.382;-0.002;2023-09-30T00:20:40;14.70;91.60
46720;DHT22;32452;51.382;-0.002;2023-09-30T00:23:27;14.70;91.70
46720;DHT22;32452;51.382;-0.002;2023-09-30T00:26:13;14.70;91.80
46720;DHT22;32452;51.382;-0.002;2023-09-30T00:29:00;14.70;92.00
46720;DHT22;32452;51.382;-0.002;2023-09-30T00:31:51;14.70;92.10
46720;DHT22;32452;51.382;-0.002;2023-09-30T00:34:39;14.70;92.20
46720;DHT22;32452;51.382;-0.002;2023-09-30T00:37:27;14.70;92.30
46720;DHT22;32452;51.382;-0.002;2023-09-30T00:40:12;14.70;92.50
46720;DHT22;32452;51.382;-0.002;2023-09-30T00:43:00;14.70;92.60
46720;DHT22;32452;51.382;-0.002;2023-09-30T00:45:50;14.70;92.70
46720;DHT22;32452;51.382;-0.002;2023-09-30T00:48:41;14.70;92.90
46720;DHT22;32452;51.382;-0.002;2023-09-30T00:51:28;14.70;92.90
46720;DHT22;32452;51.382;-0.002;2023-09-30T00:54:15;14.70;93.00
46720;DHT22;32452;51.382;-0.002;2023-09-30T00:57:03;14.70;93.10
46720;DHT22;32452;51.382;-0.002;2023-09-30T00:59:50;14.70;93.20
46720;DHT22;32452;51.382;-0.002;2023-09-30T01:02:36;14.70;93.30
46720;DHT22;32452;51.382;-0.002;2023-09-30T01:05:23;14.70;93.40
46720;DHT22;32452;51.382;-0.002;2023-09-30T01:08:09;14.70;93.50
46720;DHT22;32452;51.382;-0.002;2023-09-30T01:10:55;14.80;93.60
46720;DHT22;32452;51.382;-0.002;2023-09-30T01:13:42;14.70;93.60
46720;DHT22;32452;51.382;-0.002;2023-09-30T01:16:30;14.70;93.70
46720;DHT22;32452;51.382;-0.002;2023-09-30T01:19:16;14.70;93.80
46720;DHT22;32452;51.382;-0.002;2023-09-30T01:22:01;14.70;93.90
46720;DHT22;32452;51.382;-0.002;2023-09-30T01:24:51;14.70;94.00
46720;DHT22;32452;51.382;-0.002;2023-09-30T01:27:37;14.70;94.00
46720;DHT22;32452;51.382;-0.002;2023-09-30T01:30:23;14.70;94.10
46720;DHT22;32452;51.382;-0.002;2023-09-30T01:33:10;14.70;94.20
46720;DHT22;32452;51.382;-0.002;2023-09-30T01:36:01;14.70;94.30
46720;DHT22;32452;51.382;-0.002;2023-09-30T01:38:47;14.60;94.30
46720;DHT22;32452;51.382;-0.002;2023-09-30T01:41:33;14.60;94.40
46720;DHT22;32452;51.382;-0.002;2023-09-30T01:44:18;14.60;94.50
46720;DHT22;32452;51.382;-0.002;2023-09-30T01:47:04;14.50;94.60
46720;DHT22;32452;51.382;-0.002;2023-09-30T01:49:50;14.50;94.70
46720;DHT22;32452;51.382;-0.002;2023-09-30T01:52:35;14.40;94.80
46720;DHT22;32452;51.382;-0.002;2023-09-30T01:55:21;14.40;94.90
46720;DHT22;32452;51.382;-0.002;2023-09-30T01:58:06;14.40;95.00
46720;DHT22;32452;51.382;-0.002;2023-09-30T02:00:53;14.30;95.10
46720;DHT22;32452;51.382;-0.002;2023-09-30T02:03:39;14.30;95.20
46720;DHT22;32452;51.382;-0.002;2023-09-30T02:06:24;14.40;95.30
46720;DHT22;32452;51.382;-0.002;2023-09-30T02:09:10;14.30;95.40
46720;DHT22;32452;51.382;-0.002;2023-09-30T02:11:56;14.30;95.50
46720;DHT22;32452;51.382;-0.002;2023-09-30T02:14:42;14.30;95.60
46720;DHT22;32452;51.382;-0.002;2023-09-30T02:17:27;14.30;95.70
46720;DHT22;32452;51.382;-0.002;2023-09-30T02:20:13;14.30;95.80
46720;DHT22;32452;51.382;-0.002;2023-09-30T02:23:01;14.30;95.80
46720;DHT22;32452;51.382;-0.002;2023-09-30T02:25:47;14.30;95.90
46720;DHT22;32452;51.382;-0.002;2023-09-30T02:28:33;14.30;96.00
46720;DHT22;32452;51.382;-0.002;2023-09-30T02:31:19;14.30;96.10
46720;DHT22;32452;51.382;-0.002;2023-09-30T02:34:05;14.30;96.10
46720;DHT22;32452;51.382;-0.002;2023-09-30T02:36:51;14.30;96.20
46720;DHT22;32452;51.382;-0.002;2023-09-30T02:39:37;14.30;96.20
46720;DHT22;32452;51.382;-0.002;2023-09-30T02:42:23;14.30;96.20
46720;DHT22;32452;51.382;-0.002;2023-09-30T02:45:10;14.20;96.30
46720;DHT22;32452;51.382;-0.002;2023-09-30T02:47:56;14.10;96.40
46720;DHT22;32452;51.382;-0.002;2023-09-30T02:50:44;14.10;96.40
46720;DHT22;32452;51.382;-0.002;2023-09-30T02:53:30;14.10;96.50
46720;DHT22;32452;51.382;-0.002;2023-09-30T02:56:16;14.00;96.50
46720;DHT22;32452;51.382;-0.002;2023-09-30T02:59:01;14.00;96.60
46720;DHT22;32452;51.382;-0.002;2023-09-30T03:01:47;14.00;96.70
46720;DHT22;32452;51.382;-0.002;2023-09-30T03:04:33;13.90;96.80
46720;DHT22;32452;51.382;-0.002;2023-09-30T03:07:19;13.90;96.90
46720;DHT22;32452;51.382;-0.002;2023-09-30T03:10:05;13.90;97.00
46720;DHT22;32452;51.382;-0.002;2023-09-30T03:12:54;13.90;97.10
46720;DHT22;32452;51.382;-0.002;2023-09-30T03:15:39;13.90;97.20
46720;DHT22;32452;51.382;-0.002;2023-09-30T03:18:25;13.80;97.20
46720;DHT22;32452;51.382;-0.002;2023-09-30T03:21:15;13.80;97.30
46720;DHT22;32452;51.382;-0.002;2023-09-30T03:24:03;13.80;97.60
46720;DHT22;32452;51.382;-0.002;2023-09-30T03:26:49;13.70;97.50
46720;DHT22;32452;51.382;-0.002;2023-09-30T03:29:38;13.70;97.50
46720;DHT22;32452;51.382;-0.002;2023-09-30T03:32:24;13.70;97.60
46720;DHT22;32452;51.382;-0.002;2023-09-30T03:35:11;13.70;97.60
46720;DHT22;32452;51.382;-0.002;2023-09-30T03:38:00;13.60;97.70
46720;DHT22;32452;51.382;-0.002;2023-09-30T03:40:47;13.60;97.80
46720;DHT22;32452;51.382;-0.002;2023-09-30T03:43:35;13.60;97.90
46720;DHT22;32452;51.382;-0.002;2023-09-30T03:46:26;13.50;97.90
46720;DHT22;32452;51.382;-0.002;2023-09-30T03:49:12;13.50;98.00
46720;DHT22;32452;51.382;-0.002;2023-09-30T03:51:58;13.50;98.10
46720;DHT22;32452;51.382;-0.002;2023-09-30T03:54:44;13.50;98.20
46720;DHT22;32452;51.382;-0.002;2023-09-30T03:57:32;13.50;98.20
46720;DHT22;32452;51.382;-0.002;2023-09-30T04:00:19;13.40;98.30
46720;DHT22;32452;51.382;-0.002;2023-09-30T04:03:06;13.40;98.30
46720;DHT22;32452;51.382;-0.002;2023-09-30T04:05:51;13.40;98.40
46720;DHT22;32452;51.382;-0.002;2023-09-30T04:08:37;13.40;98.40
46720;DHT22;32452;51.382;-0.002;2023-09-30T04:11:23;13.30;98.50
46720;DHT22;32452;51.382;-0.002;2023-09-30T04:14:09;13.20;98.50
46720;DHT22;32452;51.382;-0.002;2023-09-30T04:16:55;13.20;98.90
46720;DHT22;32452;51.382;-0.002;2023-09-30T04:19:40;13.10;98.70
46720;DHT22;32452;51.382;-0.002;2023-09-30T04:22:26;13.10;98.80
46720;DHT22;32452;51.382;-0.002;2023-09-30T04:25:15;13.10;98.90
46720;DHT22;32452;51.382;-0.002;2023-09-30T04:28:01;13.00;98.90
46720;DHT22;32452;51.382;-0.002;2023-09-30T04:30:48;13.00;99.10
46720;DHT22;32452;51.382;-0.002;2023-09-30T04:33:36;13.10;99.20
46720;DHT22;32452;51.382;-0.002;2023-09-30T04:36:22;13.10;99.30
46720;DHT22;32452;51.382;-0.002;2023-09-30T04:39:08;13.10;99.30
46720;DHT22;32452;51.382;-0.002;2023-09-30T04:41:56;13.10;99.30
46720;DHT22;32452;51.382;-0.002;2023-09-30T04:44:41;13.10;99.30
46720;DHT22;32452;51.382;-0.002;2023-09-30T04:47:27;13.10;99.40
46720;DHT22;32452;51.382;-0.002;2023-09-30T04:50:12;13.10;99.40
46720;DHT22;32452;51.382;-0.002;2023-09-30T04:53:01;13.10;99.50
46720;DHT22;32452;51.382;-0.002;2023-09-30T04:55:48;13.10;99.50
46720;DHT22;32452;51.382;-0.002;2023-09-30T04:58:34;13.00;99.50
46720;DHT22;32452;51.382;-0.002;2023-09-30T05:01:20;13.10;99.60
46720;DHT22;32452;51.382;-0.002;2023-09-30T05:04:06;13.10;99.60
46720;DHT22;32452;51.382;-0.002;2023-09-30T05:06:52;13.10;99.60
46720;DHT22;32452;51.382;-0.002;2023-09-30T05:09:38;13.10;99.70
46720;DHT22;32452;51.382;-0.002;2023-09-30T05:12:23;13.10;99.70
46720;DHT22;32452;51.382;-0.002;2023-09-30T05:15:09;13.10;99.70
46720;DHT22;32452;51.382;-0.002;2023-09-30T05:17:55;13.10;99.80
46720;DHT22;32452;51.382;-0.002;2023-09-30T05:20:41;13.10;99.80
46720;DHT22;32452;51.382;-0.002;2023-09-30T05:23:27;13.10;99.90
46720;DHT22;32452;51.382;-0.002;2023-09-30T05:26:12;13.10;99.90
46720;DHT22;32452;51.382;-0.002;2023-09-30T05:28:58;13.10;99.90
46720;DHT22;32452;51.382;-0.002;2023-09-30T05:31:45;13.10;99.90
46720;DHT22;32452;51.382;-0.002;2023-09-30T05:34:30;13.10;99.90
46720;DHT22;32452;51.382;-0.002;2023-09-30T05:37:16;13.10;99.90
46720;DHT22;32452;51.382;-0.002;2023-09-30T05:40:01;13.10;99.90
46720;DHT22;32452;51.382;-0.002;2023-09-30T05:42:54;13.10;99.90
46720;DHT22;32452;51.382;-0.002;2023-09-30T05:45:40;13.10;99.90
46720;DHT22;32452;51.382;-0.002;2023-09-30T05:48:35;13.10;99.90
46720;DHT22;32452;51.382;-0.002;2023-09-30T05:51:22;13.00;99.90
46720;DHT22;32452;51.382;-0.002;2023-09-30T05:54:08;13.00;99.90
46720;DHT22;32452;51.382;-0.002;2023-09-30T05:56:55;13.00;99.90
46720;DHT22;32452;51.382;-0.002;2023-09-30T05:59:41;13.00;99.90
46720;DHT22;32452;51.382;-0.002;2023-09-30T06:02:28;13.10;99.90
46720;DHT22;32452;51.382;-0.002;2023-09-30T06:05:15;13.10;99.90
46720;DHT22;32452;51.382;-0.002;2023-09-30T06:08:04;13.10;99.90
46720;DHT22;32452;51.382;-0.002;2023-09-30T06:10:50;13.10;99.90
46720;DHT22;32452;51.382;-0.002;2023-09-30T06:13:35;13.10;99.90
46720;DHT22;32452;51.382;-0.002;2023-09-30T06:16:21;13.00;99.90
46720;DHT22;32452;51.382;-0.002;2023-09-30T06:19:09;13.00;99.90
46720;DHT22;32452;51.382;-0.002;2023-09-30T06:21:54;13.00;99.90
46720;DHT22;32452;51.382;-0.002;2023-09-30T06:24:42;13.10;99.90
46720;DHT22;32452;51.382;-0.002;2023-09-30T06:27:27;13.10;99.90
46720;DHT22;32452;51.382;-0.002;2023-09-30T06:30:14;13.10;99.90
46720;DHT22;32452;51.382;-0.002;2023-09-30T06:33:02;13.10;99.90
46720;DHT22;32452;51.382;-0.002;2023-09-30T06:35:50;13.20;99.90
46720;DHT22;32452;51.382;-0.002;2023-09-30T06:38:37;13.20;99.90
46720;DHT22;32452;51.382;-0.002;2023-09-30T06:41:22;13.30;99.90
46720;DHT22;32452;51.382;-0.002;2023-09-30T06:44:08;13.30;99.90
46720;DHT22;32452;51.382;-0.002;2023-09-30T06:46:54;13.40;99.90
46720;DHT22;32452;51.382;-0.002;2023-09-30T06:49:40;13.40;99.90
46720;DHT22;32452;51.382;-0.002;2023-09-30T06:52:27;13.50;99.90
46720;DHT22;32452;51.382;-0.002;2023-09-30T06:55:13;13.60;99.90
46720;DHT22;32452;51.382;-0.002;2023-09-30T06:57:59;13.60;99.90
46720;DHT22;32452;51.382;-0.002;2023-09-30T07:00:53;13.70;99.90
46720;DHT22;32452;51.382;-0.002;2023-09-30T07:03:42;13.80;99.90
46720;DHT22;32452;51.382;-0.002;2023-09-30T07:06:27;13.90;99.90
46720;DHT22;32452;51.382;-0.002;2023-09-30T07:09:13;13.90;99.90
46720;DHT22;32452;51.382;-0.002;2023-09-30T07:11:59;13.90;99.90
46720;DHT22;32452;51.382;-0.002;2023-09-30T07:14:44;14.00;99.90
46720;DHT22;32452;51.382;-0.002;2023-09-30T07:17:30;14.10;99.90
46720;DHT22;32452;51.382;-0.002;2023-09-30T07:20:16;14.20;99.90
46720;DHT22;32452;51.382;-0.002;2023-09-30T07:23:02;14.50;99.90
46720;DHT22;32452;51.382;-0.002;2023-09-30T07:26:04;14.80;99.90
46720;DHT22;32452;51.382;-0.002;2023-09-30T07:28:50;15.30;99.90
46720;DHT22;32452;51.382;-0.002;2023-09-30T07:31:36;15.90;99.70
46720;DHT22;32452;51.382;-0.002;2023-09-30T07:34:21;16.60;99.00
46720;DHT22;32452;51.382;-0.002;2023-09-30T07:37:07;17.30;98.30
46720;DHT22;32452;51.382;-0.002;2023-09-30T07:39:53;17.90;97.40
46720;DHT22;32452;51.382;-0.002;2023-09-30T07:42:39;18.50;96.40
46720;DHT22;32452;51.382;-0.002;2023-09-30T07:45:25;19.10;95.50
46720;DHT22;32452;51.382;-0.002;2023-09-30T07:48:10;19.50;94.60
46720;DHT22;32452;51.382;-0.002;2023-09-30T07:50:56;19.90;93.70
46720;DHT22;32452;51.382;-0.002;2023-09-30T07:53:42;20.10;93.00
46720;DHT22;32452;51.382;-0.002;2023-09-30T07:56:28;20.30;92.30
46720;DHT22;32452;51.382;-0.002;2023-09-30T07:59:14;20.40;91.90
46720;DHT22;32452;51.382;-0.002;2023-09-30T08:02:01;20.70;91.30
46720;DHT22;32452;51.382;-0.002;2023-09-30T08:04:49;20.80;90.60
46720;DHT22;32452;51.382;-0.002;2023-09-30T08:07:35;20.90;90.30
46720;DHT22;32452;51.382;-0.002;2023-09-30T08:10:20;21.20;89.60
46720;DHT22;32452;51.382;-0.002;2023-09-30T08:13:06;21.50;88.30
46720;DHT22;32452;51.382;-0.002;2023-09-30T08:15:52;21.80;86.70
46720;DHT22;32452;51.382;-0.002;2023-09-30T08:18:38;22.20;85.10
46720;DHT22;32452;51.382;-0.002;2023-09-30T08:21:24;22.50;83.70
46720;DHT22;32452;51.382;-0.002;2023-09-30T08:24:10;22.80;82.20
46720;DHT22;32452;51.382;-0.002;2023-09-30T08:26:55;23.00;80.60
46720;DHT22;32452;51.382;-0.002;2023-09-30T08:29:42;23.20;79.10
46720;DHT22;32452;51.382;-0.002;2023-09-30T08:32:27;23.40;77.90
46720;DHT22;32452;51.382;-0.002;2023-09-30T08:35:13;23.60;76.60
46720;DHT22;32452;51.382;-0.002;2023-09-30T08:38:00;23.80;75.40
46720;DHT22;32452;51.382;-0.002;2023-09-30T08:40:49;24.00;74.50
46720;DHT22;32452;51.382;-0.002;2023-09-30T08:43:38;24.20;72.20
46720;DHT22;32452;51.382;-0.002;2023-09-30T08:46:24;24.40;70.80
46720;DHT22;32452;51.382;-0.002;2023-09-30T08:49:11;24.60;69.80
46720;DHT22;32452;51.382;-0.002;2023-09-30T08:51:58;24.70;69.10
46720;DHT22;32452;51.382;-0.002;2023-09-30T08:54:46;24.80;68.20
46720;DHT22;32452;51.382;-0.002;2023-09-30T08:57:32;24.90;67.20
46720;DHT22;32452;51.382;-0.002;2023-09-30T09:00:18;25.00;66.40
46720;DHT22;32452;51.382;-0.002;2023-09-30T09:03:07;25.00;64.80
46720;DHT22;32452;51.382;-0.002;2023-09-30T09:05:56;24.90;63.00
46720;DHT22;32452;51.382;-0.002;2023-09-30T09:08:42;25.00;62.20
46720;DHT22;32452;51.382;-0.002;2023-09-30T09:11:37;24.90;61.90
46720;DHT22;32452;51.382;-0.002;2023-09-30T09:14:41;24.90;61.10
46720;DHT22;32452;51.382;-0.002;2023-09-30T09:17:44;25.00;60.70
46720;DHT22;32452;51.382;-0.002;2023-09-30T09:20:30;25.30;62.30
46720;DHT22;32452;51.382;-0.002;2023-09-30T09:23:15;25.50;59.70
46720;DHT22;32452;51.382;-0.002;2023-09-30T09:26:01;25.60;58.30
46720;DHT22;32452;51.382;-0.002;2023-09-30T09:28:47;25.80;57.60
46720;DHT22;32452;51.382;-0.002;2023-09-30T09:31:35;26.10;56.60
46720;DHT22;32452;51.382;-0.002;2023-09-30T09:34:21;26.30;56.50
46720;DHT22;32452;51.382;-0.002;2023-09-30T09:37:18;26.60;55.40
46720;DHT22;32452;51.382;-0.002;2023-09-30T09:40:04;26.70;54.10
46720;DHT22;32452;51.382;-0.002;2023-09-30T09:42:53;26.80;53.10
46720;DHT22;32452;51.382;-0.002;2023-09-30T09:45:40;27.00;52.10
46720;DHT22;32452;51.382;-0.002;2023-09-30T09:48:27;27.00;51.70
46720;DHT22;32452;51.382;-0.002;2023-09-30T09:51:13;26.60;50.20
46720;DHT22;32452;51.382;-0.002;2023-09-30T09:53:58;26.30;50.30
46720;DHT22;32452;51.382;-0.002;2023-09-30T09:56:45;26.30;48.60
46720;DHT22;32452;51.382;-0.002;2023-09-30T09:59:34;26.30;47.70
46720;DHT22;32452;51.382;-0.002;2023-09-30T10:02:21;26.40;47.90
46720;DHT22;32452;51.382;-0.002;2023-09-30T10:05:08;26.70;47.60
46720;DHT22;32452;51.382;-0.002;2023-09-30T10:08:07;26.80;47.60
46720;DHT22;32452;51.382;-0.002;2023-09-30T10:10:54;27.00;47.10
46720;DHT22;32452;51.382;-0.002;2023-09-30T10:13:57;27.30;46.50
46720;DHT22;32452;51.382;-0.002;2023-09-30T10:16:49;27.30;45.00
46720;DHT22;32452;51.382;-0.002;2023-09-30T10:19:35;26.90;44.60
46720;DHT22;32452;51.382;-0.002;2023-09-30T10:22:21;26.50;44.80
46720;DHT22;32452;51.382;-0.002;2023-09-30T10:25:34;26.50;45.50
46720;DHT22;32452;51.382;-0.002;2023-09-30T10:28:43;26.90;44.90
46720;DHT22;32452;51.382;-0.002;2023-09-30T10:31:49;27.20;44.70
46720;DHT22;32452;51.382;-0.002;2023-09-30T10:34:36;27.20;44.50
46720;DHT22;32452;51.382;-0.002;2023-09-30T10:37:23;27.30;45.00
46720;DHT22;32452;51.382;-0.002;2023-09-30T10:40:10;27.50;44.90
46720;DHT22;32452;51.382;-0.002;2023-09-30T10:52:08;26.00;45.40
46720;DHT22;32452;51.382;-0.002;2023-09-30T10:55:02;25.40;46.10
46720;DHT22;32452;51.382;-0.002;2023-09-30T10:57:50;24.80;46.40
46720;DHT22;32452;51.382;-0.002;2023-09-30T11:00:36;24.10;47.60
46720;DHT22;32452;51.382;-0.002;2023-09-30T11:03:24;23.60;48.60
46720;DHT22;32452;51.382;-0.002;2023-09-30T11:06:15;23.20;49.40
46720;DHT22;32452;51.382;-0.002;2023-09-30T11:09:03;23.00;50.00
46720;DHT22;32452;51.382;-0.002;2023-09-30T11:11:50;22.70;50.40
46720;DHT22;32452;51.382;-0.002;2023-09-30T11:14:37;22.60;50.70
46720;DHT22;32452;51.382;-0.002;2023-09-30T11:17:22;22.40;51.40
46720;DHT22;32452;51.382;-0.002;2023-09-30T11:20:10;22.20;52.20
46720;DHT22;32452;51.382;-0.002;2023-09-30T11:22:55;22.00;52.70
46720;DHT22;32452;51.382;-0.002;2023-09-30T11:25:41;22.00;53.00
46720;DHT22;32452;51.382;-0.002;2023-09-30T11:28:41;21.90;53.10
46720;DHT22;32452;51.382;-0.002;2023-09-30T11:31:28;21.90;53.40
46720;DHT22;32452;51.382;-0.002;2023-09-30T11:34:19;21.90;53.70
46720;DHT22;32452;51.382;-0.002;2023-09-30T11:37:06;21.90;54.30
46720;DHT22;32452;51.382;-0.002;2023-09-30T11:39:52;22.30;55.00
46720;DHT22;32452;51.382;-0.002;2023-09-30T11:42:39;22.80;53.90
46720;DHT22;32452;51.382;-0.002;2023-09-30T11:45:25;23.50;53.40
46720;DHT22;32452;51.382;-0.002;2023-09-30T11:48:20;24.00;52.50
46720;DHT22;32452;51.382;-0.002;2023-09-30T11:51:06;24.30;51.10
46720;DHT22;32452;51.382;-0.002;2023-09-30T11:53:55;24.30;51.50
46720;DHT22;32452;51.382;-0.002;2023-09-30T11:56:42;24.60;51.20
46720;DHT22;32452;51.382;-0.002;2023-09-30T11:59:29;24.80;50.70
46720;DHT22;32452;51.382;-0.002;2023-09-30T12:02:17;25.10;50.00
46720;DHT22;32452;51.382;-0.002;2023-09-30T12:05:03;25.10;49.20
46720;DHT22;32452;51.382;-0.002;2023-09-30T12:07:48;24.80;48.90
46720;DHT22;32452;51.382;-0.002;2023-09-30T12:10:36;24.30;49.10
46720;DHT22;32452;51.382;-0.002;2023-09-30T12:13:22;23.80;49.60
46720;DHT22;32452;51.382;-0.002;2023-09-30T12:16:08;23.40;50.60
46720;DHT22;32452;51.382;-0.002;2023-09-30T12:18:55;23.10;51.60
46720;DHT22;32452;51.382;-0.002;2023-09-30T12:21:42;22.90;52.10
46720;DHT22;32452;51.382;-0.002;2023-09-30T12:24:28;22.90;52.30
46720;DHT22;32452;51.382;-0.002;2023-09-30T12:27:13;22.90;52.50
46720;DHT22;32452;51.382;-0.002;2023-09-30T12:29:59;22.80;52.80
46720;DHT22;32452;51.382;-0.002;2023-09-30T12:32:45;22.80;52.80
46720;DHT22;32452;51.382;-0.002;2023-09-30T12:35:31;22.70;52.80
46720;DHT22;32452;51.382;-0.002;2023-09-30T12:38:17;22.60;53.40
46720;DHT22;32452;51.382;-0.002;2023-09-30T12:41:03;22.80;54.10
46720;DHT22;32452;51.382;-0.002;2023-09-30T12:43:48;23.00;54.40
46720;DHT22;32452;51.382;-0.002;2023-09-30T12:46:35;23.40;53.80
46720;DHT22;32452;51.382;-0.002;2023-09-30T12:49:22;23.50;53.20
46720;DHT22;32452;51.382;-0.002;2023-09-30T12:52:08;23.60;53.00
46720;DHT22;32452;51.382;-0.002;2023-09-30T12:54:53;23.70;53.10
46720;DHT22;32452;51.382;-0.002;2023-09-30T12:57:40;23.80;53.50
46720;DHT22;32452;51.382;-0.002;2023-09-30T13:00:26;23.80;53.80
46720;DHT22;32452;51.382;-0.002;2023-09-30T13:03:12;23.70;53.90
46720;DHT22;32452;51.382;-0.002;2023-09-30T13:06:01;23.40;54.20
46720;DHT22;32452;51.382;-0.002;2023-09-30T13:08:47;23.10;55.00
46720;DHT22;32452;51.382;-0.002;2023-09-30T13:11:32;23.10;56.10
46720;DHT22;32452;51.382;-0.002;2023-09-30T13:14:22;23.30;56.70
46720;DHT22;32452;51.382;-0.002;2023-09-30T13:17:07;23.40;56.60
46720;DHT22;32452;51.382;-0.002;2023-09-30T13:19:55;23.50;56.30
46720;DHT22;32452;51.382;-0.002;2023-09-30T13:22:40;23.40;56.00
46720;DHT22;32452;51.382;-0.002;2023-09-30T13:25:26;23.20;56.30
46720;DHT22;32452;51.382;-0.002;2023-09-30T13:28:12;23.10;56.70
46720;DHT22;32452;51.382;-0.002;2023-09-30T13:30:58;23.10;57.00
46720;DHT22;32452;51.382;-0.002;2023-09-30T13:33:45;23.10;56.70
46720;DHT22;32452;51.382;-0.002;2023-09-30T13:36:33;23.10;57.00
46720;DHT22;32452;51.382;-0.002;2023-09-30T13:39:18;23.20;57.80
46720;DHT22;32452;51.382;-0.002;2023-09-30T13:42:04;23.20;56.90
46720;DHT22;32452;51.382;-0.002;2023-09-30T13:44:52;23.00;57.00
46720;DHT22;32452;51.382;-0.002;2023-09-30T13:47:38;22.90;57.30
46720;DHT22;32452;51.382;-0.002;2023-09-30T13:50:23;22.80;57.60
46720;DHT22;32452;51.382;-0.002;2023-09-30T13:53:09;22.60;58.00
46720;DHT22;32452;51.382;-0.002;2023-09-30T13:55:55;22.50;58.30
46720;DHT22;32452;51.382;-0.002;2023-09-30T13:58:40;22.50;58.60
46720;DHT22;32452;51.382;-0.002;2023-09-30T14:01:27;22.50;58.80
46720;DHT22;32452;51.382;-0.002;2023-09-30T14:04:13;22.50;58.80
46720;DHT22;32452;51.382;-0.002;2023-09-30T14:06:59;22.40;58.50
46720;DHT22;32452;51.382;-0.002;2023-09-30T14:09:45;22.40;58.80
46720;DHT22;32452;51.382;-0.002;2023-09-30T14:12:32;22.20;58.90
46720;DHT22;32452;51.382;-0.002;2023-09-30T14:15:17;22.20;59.50
46720;DHT22;32452;51.382;-0.002;2023-09-30T14:18:03;22.10;59.80
46720;DHT22;32452;51.382;-0.002;2023-09-30T14:20:49;21.90;60.30
46720;DHT22;32452;51.382;-0.002;2023-09-30T14:23:36;21.80;60.90
46720;DHT22;32452;51.382;-0.002;2023-09-30T14:26:24;21.70;61.40
46720;DHT22;32452;51.382;-0.002;2023-09-30T14:29:10;21.60;62.20
46720;DHT22;32452;51.382;-0.002;2023-09-30T14:31:58;21.60;62.70
46720;DHT22;32452;51.382;-0.002;2023-09-30T14:34:43;21.60;63.30
46720;DHT22;32452;51.382;-0.002;2023-09-30T14:37:29;21.70;63.60
46720;DHT22;32452;51.382;-0.002;2023-09-30T14:40:15;21.70;63.70
46720;DHT22;32452;51.382;-0.002;2023-09-30T14:43:01;21.70;63.90
46720;DHT22;32452;51.382;-0.002;2023-09-30T14:45:50;21.60;64.10
46720;DHT22;32452;51.382;-0.002;2023-09-30T14:48:37;21.60;64.00
46720;DHT22;32452;51.382;-0.002;2023-09-30T14:51:23;21.50;64.00
46720;DHT22;32452;51.382;-0.002;2023-09-30T14:54:09;21.50;63.80
46720;DHT22;32452;51.382;-0.002;2023-09-30T14:56:54;21.40;63.70
46720;DHT22;32452;51.382;-0.002;2023-09-30T14:59:40;21.40;63.60
46720;DHT22;32452;51.382;-0.002;2023-09-30T15:02:26;21.30;63.50
46720;DHT22;32452;51.382;-0.002;2023-09-30T15:05:12;21.10;63.80
46720;DHT22;32452;51.382;-0.002;2023-09-30T15:08:00;21.10;64.00
46720;DHT22;32452;51.382;-0.002;2023-09-30T15:10:49;21.00;64.10
46720;DHT22;32452;51.382;-0.002;2023-09-30T15:13:35;20.90;64.30
46720;DHT22;32452;51.382;-0.002;2023-09-30T15:16:22;20.90;64.40
46720;DHT22;32452;51.382;-0.002;2023-09-30T15:19:07;20.80;64.30
46720;DHT22;32452;51.382;-0.002;2023-09-30T15:21:53;20.80;64.10
46720;DHT22;32452;51.382;-0.002;2023-09-30T15:24:40;20.80;64.10
46720;DHT22;32452;51.382;-0.002;2023-09-30T15:27:25;20.80;64.40
46720;DHT22;32452;51.382;-0.002;2023-09-30T15:30:12;20.70;64.50
46720;DHT22;32452;51.382;-0.002;2023-09-30T15:32:59;20.60;64.90
46720;DHT22;32452;51.382;-0.002;2023-09-30T15:35:44;20.60;65.30
46720;DHT22;32452;51.382;-0.002;2023-09-30T15:38:32;20.50;65.70
46720;DHT22;32452;51.382;-0.002;2023-09-30T15:41:22;20.40;66.10
46720;DHT22;32452;51.382;-0.002;2023-09-30T15:44:11;20.30;66.50
46720;DHT22;32452;51.382;-0.002;2023-09-30T15:46:57;20.30;66.80
46720;DHT22;32452;51.382;-0.002;2023-09-30T15:49:44;20.20;66.90
46720;DHT22;32452;51.382;-0.002;2023-09-30T15:52:30;20.20;67.00
46720;DHT22;32452;51.382;-0.002;2023-09-30T15:55:16;20.20;66.50
46720;DHT22;32452;51.382;-0.002;2023-09-30T15:58:05;20.10;65.90
46720;DHT22;32452;51.382;-0.002;2023-09-30T16:00:51;20.10;66.00
46720;DHT22;32452;51.382;-0.002;2023-09-30T16:03:37;20.10;66.10
46720;DHT22;32452;51.382;-0.002;2023-09-30T16:06:23;20.00;65.90
46720;DHT22;32452;51.382;-0.002;2023-09-30T16:09:08;19.90;66.10
46720;DHT22;32452;51.382;-0.002;2023-09-30T16:11:54;19.80;66.60
46720;DHT22;32452;51.382;-0.002;2023-09-30T16:14:40;19.70;67.10
46720;DHT22;32452;51.382;-0.002;2023-09-30T16:17:25;19.70;67.50
46720;DHT22;32452;51.382;-0.002;2023-09-30T16:20:11;19.60;68.00
46720;DHT22;32452;51.382;-0.002;2023-09-30T16:22:58;19.60;68.60
46720;DHT22;32452;51.382;-0.002;2023-09-30T16:25:43;19.50;68.80
46720;DHT22;32452;51.382;-0.002;2023-09-30T16:28:29;19.40;69.00
46720;DHT22;32452;51.382;-0.002;2023-09-30T16:31:14;19.30;69.20
46720;DHT22;32452;51.382;-0.002;2023-09-30T16:34:01;19.30;69.70
46720;DHT22;32452;51.382;-0.002;2023-09-30T16:36:47;19.30;70.20
46720;DHT22;32452;51.382;-0.002;2023-09-30T16:39:33;19.20;70.60
46720;DHT22;32452;51.382;-0.002;2023-09-30T16:42:18;19.10;70.90
46720;DHT22;32452;51.382;-0.002;2023-09-30T16:45:04;19.20;71.30
46720;DHT22;32452;51.382;-0.002;2023-09-30T16:47:50;19.20;71.30
46720;DHT22;32452;51.382;-0.002;2023-09-30T16:50:40;19.10;71.20
46720;DHT22;32452;51.382;-0.002;2023-09-30T16:53:26;19.10;71.40
46720;DHT22;32452;51.382;-0.002;2023-09-30T16:56:11;19.00;72.70
46720;DHT22;32452;51.382;-0.002;2023-09-30T16:58:58;18.90;72.70
46720;DHT22;32452;51.382;-0.002;2023-09-30T17:01:45;18.80;73.20
46720;DHT22;32452;51.382;-0.002;2023-09-30T17:04:32;18.70;73.60
46720;DHT22;32452;51.382;-0.002;2023-09-30T17:07:17;18.60;73.90
46720;DHT22;32452;51.382;-0.002;2023-09-30T17:10:04;18.50;74.40
46720;DHT22;32452;51.382;-0.002;2023-09-30T17:12:50;18.50;74.90
46720;DHT22;32452;51.382;-0.002;2023-09-30T17:15:41;18.50;75.20
46720;DHT22;32452;51.382;-0.002;2023-09-30T17:18:27;18.40;75.50
46720;DHT22;32452;51.382;-0.002;2023-09-30T17:21:15;18.40;76.20
46720;DHT22;32452;51.382;-0.002;2023-09-30T17:24:01;18.40;76.90
46720;DHT22;32452;51.382;-0.002;2023-09-30T17:26:47;18.30;77.30